PWSweather.com
Personal Weather Stations
Station Observations
BZA01
Southern Palatinate, Bad BergzabernDE 76887

Southern PalatinateBad BergzabernDE 76887

Lat: 49.096, Lon: 8

Elevation: 640

Station Type: Davis VP2+

Latest ConditionsUpdated 8:12:05 AM GMT+01:01 Tuesday, Sep 26, 2017
Currently Today's Max Today's Min Today's Average
Temperature 52.5°F11.4°C 58.5°F14.7°C 49.8°F9.9°C 52.5°F11.4°C
Dew Point 50.2°F10.1°C 52.0°F11.1°C 47.7°F8.7°C 49.4°F9.7°C
Winds Calm Calm 0.9 mph NE1.4 kmh NE - 0.0 mph 0.0 kmh
Wind Gusts -- 0.9 mph1.4 kmh - -
Humidity 92% 93% 79% 89%
Pressure 30.14 in1020.7 mb 30.14 in1020.7 mb 30.09 in1019.0 mb -
Hour Temp Dew Point Humidity Winds Wind Gusts Pressure Precip Precip Rate Daily Precip Total
08:12 AM 52.5°F11.4°C 50.2°F10.1°C 92% Calm Calm -- 30.14 in1020.7 mb - 0.00 in0.0 mm 0.00 in0.0 mm
08:07 AM 52.2°F11.2°C 49.8°F9.9°C 92% Calm Calm -- 30.14 in1020.7 mb - 0.00 in0.0 mm 0.00 in0.0 mm
08:02 AM 52.0°F11.1°C 49.6°F9.8°C 92% Calm Calm -- 30.13 in1020.3 mb - 0.00 in0.0 mm 0.00 in0.0 mm
07:57 AM 51.4°F10.8°C 49.5°F9.7°C 93% Calm Calm -- 30.13 in1020.3 mb - 0.00 in0.0 mm 0.00 in0.0 mm
07:52 AM 51.1°F10.6°C 49.1°F9.5°C 93% Calm Calm -- 30.13 in1020.3 mb - 0.00 in0.0 mm 0.00 in0.0 mm
07:47 AM 50.7°F10.4°C 48.7°F9.3°C 93% Calm Calm -- 30.13 in1020.3 mb - 0.00 in0.0 mm 0.00 in0.0 mm
07:42 AM 50.4°F10.2°C 48.4°F9.1°C 93% Calm Calm -- 30.13 in1020.3 mb - 0.00 in0.0 mm 0.00 in0.0 mm
07:37 AM 50.2°F10.1°C 48.2°F9.0°C 93% Calm Calm -- 30.13 in1020.3 mb - 0.00 in0.0 mm 0.00 in0.0 mm
07:32 AM 50.0°F10.0°C 48.0°F8.9°C 93% Calm Calm -- 30.13 in1020.3 mb - 0.00 in0.0 mm 0.00 in0.0 mm
07:27 AM 50.0°F10.0°C 48.0°F8.9°C 93% Calm Calm -- 30.13 in1020.3 mb - 0.00 in0.0 mm 0.00 in0.0 mm
07:22 AM 50.0°F10.0°C 48.0°F8.9°C 93% Calm Calm -- 30.13 in1020.3 mb - 0.00 in0.0 mm 0.00 in0.0 mm
07:17 AM 50.0°F10.0°C 48.0°F8.9°C 93% Calm Calm -- 30.13 in1020.3 mb - 0.00 in0.0 mm 0.00 in0.0 mm
07:12 AM 49.8°F9.9°C 47.8°F8.8°C 93% Calm Calm -- 30.13 in1020.3 mb - 0.00 in0.0 mm 0.00 in0.0 mm
07:07 AM 49.8°F9.9°C 47.8°F8.8°C 93% Calm Calm -- 30.13 in1020.3 mb - 0.00 in0.0 mm 0.00 in0.0 mm
07:02 AM 49.8°F9.9°C 47.8°F8.8°C 93% Calm Calm -- 30.13 in1020.3 mb - 0.00 in0.0 mm 0.00 in0.0 mm
06:57 AM 49.8°F9.9°C 47.8°F8.8°C 93% Calm Calm -- 30.13 in1020.3 mb - 0.00 in0.0 mm 0.00 in0.0 mm
06:52 AM 49.8°F9.9°C 47.8°F8.8°C 93% Calm Calm -- 30.13 in1020.3 mb - 0.00 in0.0 mm 0.00 in0.0 mm
06:47 AM 49.8°F9.9°C 47.8°F8.8°C 93% Calm Calm -- 30.13 in1020.3 mb - 0.00 in0.0 mm 0.00 in0.0 mm
06:42 AM 49.8°F9.9°C 47.8°F8.8°C 93% Calm Calm -- 30.13 in1020.3 mb - 0.00 in0.0 mm 0.00 in0.0 mm
06:37 AM 49.8°F9.9°C 47.8°F8.8°C 93% Calm Calm -- 30.12 in1020.0 mb - 0.00 in0.0 mm 0.00 in0.0 mm
06:32 AM 49.8°F9.9°C 47.8°F8.8°C 93% Calm Calm -- 30.12 in1020.0 mb - 0.00 in0.0 mm 0.00 in0.0 mm
06:27 AM 49.8°F9.9°C 47.7°F8.7°C 92% Calm Calm -- 30.12 in1020.0 mb - 0.00 in0.0 mm 0.00 in0.0 mm
06:22 AM 49.8°F9.9°C 47.7°F8.7°C 92% Calm Calm -- 30.12 in1020.0 mb - 0.00 in0.0 mm 0.00 in0.0 mm
06:17 AM 50.0°F10.0°C 48.0°F8.9°C 93% Calm Calm -- 30.12 in1020.0 mb - 0.00 in0.0 mm 0.00 in0.0 mm
06:12 AM 50.2°F10.1°C 48.2°F9.0°C 93% Calm Calm -- 30.12 in1020.0 mb - 0.00 in0.0 mm 0.00 in0.0 mm
06:07 AM 50.2°F10.1°C 48.2°F9.0°C 93% Calm Calm -- 30.12 in1020.0 mb - 0.00 in0.0 mm 0.00 in0.0 mm
06:02 AM 50.2°F10.1°C 48.2°F9.0°C 93% Calm Calm -- 30.12 in1020.0 mb - 0.00 in0.0 mm 0.00 in0.0 mm
05:57 AM 50.2°F10.1°C 48.2°F9.0°C 93% Calm Calm -- 30.12 in1020.0 mb - 0.00 in0.0 mm 0.00 in0.0 mm
05:52 AM 50.2°F10.1°C 48.0°F8.9°C 92% Calm Calm -- 30.11 in1019.6 mb - 0.00 in0.0 mm 0.00 in0.0 mm
05:47 AM 50.2°F10.1°C 48.0°F8.9°C 92% Calm Calm -- 30.11 in1019.6 mb - 0.00 in0.0 mm 0.00 in0.0 mm
05:42 AM 50.2°F10.1°C 48.0°F8.9°C 92% Calm Calm -- 30.11 in1019.6 mb - 0.00 in0.0 mm 0.00 in0.0 mm
05:37 AM 50.4°F10.2°C 48.2°F9.0°C 92% Calm Calm -- 30.11 in1019.6 mb - 0.00 in0.0 mm 0.00 in0.0 mm
05:32 AM 50.4°F10.2°C 48.2°F9.0°C 92% Calm Calm -- 30.11 in1019.6 mb - 0.00 in0.0 mm 0.00 in0.0 mm
05:27 AM 50.4°F10.2°C 48.2°F9.0°C 92% Calm Calm -- 30.11 in1019.6 mb - 0.00 in0.0 mm 0.00 in0.0 mm
05:22 AM 50.5°F10.3°C 48.4°F9.1°C 92% Calm Calm -- 30.11 in1019.6 mb - 0.00 in0.0 mm 0.00 in0.0 mm
05:17 AM 50.5°F10.3°C 48.4°F9.1°C 92% Calm Calm -- 30.11 in1019.6 mb - 0.00 in0.0 mm 0.00 in0.0 mm
05:12 AM 50.7°F10.4°C 48.6°F9.2°C 92% Calm Calm -- 30.11 in1019.6 mb - 0.00 in0.0 mm 0.00 in0.0 mm
05:07 AM 50.7°F10.4°C 48.6°F9.2°C 92% Calm Calm -- 30.11 in1019.6 mb - 0.00 in0.0 mm 0.00 in0.0 mm
05:02 AM 50.7°F10.4°C 48.6°F9.2°C 92% Calm Calm -- 30.11 in1019.6 mb - 0.00 in0.0 mm 0.00 in0.0 mm
04:57 AM 50.7°F10.4°C 48.6°F9.2°C 92% Calm Calm -- 30.11 in1019.6 mb - 0.00 in0.0 mm 0.00 in0.0 mm
04:52 AM 50.9°F10.5°C 48.7°F9.3°C 92% Calm Calm -- 30.10 in1019.3 mb - 0.00 in0.0 mm 0.00 in0.0 mm
04:47 AM 51.1°F10.6°C 48.9°F9.4°C 92% Calm Calm -- 30.10 in1019.3 mb - 0.00 in0.0 mm 0.00 in0.0 mm
04:42 AM 51.1°F10.6°C 48.9°F9.4°C 92% Calm Calm -- 30.10 in1019.3 mb - 0.00 in0.0 mm 0.00 in0.0 mm
04:37 AM 51.1°F10.6°C 48.9°F9.4°C 92% Calm Calm -- 30.10 in1019.3 mb - 0.00 in0.0 mm 0.00 in0.0 mm
04:32 AM 51.1°F10.6°C 48.9°F9.4°C 92% Calm Calm -- 30.10 in1019.3 mb - 0.00 in0.0 mm 0.00 in0.0 mm
04:27 AM 51.1°F10.6°C 48.9°F9.4°C 92% Calm Calm -- 30.10 in1019.3 mb - 0.00 in0.0 mm 0.00 in0.0 mm
04:22 AM 51.3°F10.7°C 49.1°F9.5°C 92% Calm Calm -- 30.10 in1019.3 mb - 0.00 in0.0 mm 0.00 in0.0 mm
04:17 AM 51.3°F10.7°C 49.1°F9.5°C 92% Calm Calm -- 30.10 in1019.3 mb - 0.00 in0.0 mm 0.00 in0.0 mm
04:12 AM 51.3°F10.7°C 49.1°F9.5°C 92% Calm Calm -- 30.10 in1019.3 mb - 0.00 in0.0 mm 0.00 in0.0 mm
04:07 AM 51.3°F10.7°C 48.7°F9.3°C 91% Calm Calm -- 30.10 in1019.3 mb - 0.00 in0.0 mm 0.00 in0.0 mm
04:02 AM 51.3°F10.7°C 48.7°F9.3°C 91% Calm Calm -- 30.09 in1019.0 mb - 0.00 in0.0 mm 0.00 in0.0 mm
03:57 AM 51.4°F10.8°C 48.9°F9.4°C 91% Calm Calm -- 30.10 in1019.3 mb - 0.00 in0.0 mm 0.00 in0.0 mm
03:52 AM 51.4°F10.8°C 48.9°F9.4°C 91% Calm Calm -- 30.10 in1019.3 mb - 0.00 in0.0 mm 0.00 in0.0 mm
03:47 AM 51.6°F10.9°C 49.1°F9.5°C 91% Calm Calm -- 30.10 in1019.3 mb - 0.00 in0.0 mm 0.00 in0.0 mm
03:42 AM 51.6°F10.9°C 49.1°F9.5°C 91% Calm Calm -- 30.09 in1019.0 mb - 0.00 in0.0 mm 0.00 in0.0 mm
03:37 AM 51.6°F10.9°C 49.1°F9.5°C 91% Calm Calm -- 30.10 in1019.3 mb - 0.00 in0.0 mm 0.00 in0.0 mm
03:32 AM 51.6°F10.9°C 49.1°F9.5°C 91% Calm Calm -- 30.10 in1019.3 mb - 0.00 in0.0 mm 0.00 in0.0 mm
03:27 AM 51.6°F10.9°C 49.1°F9.5°C 91% Calm Calm -- 30.10 in1019.3 mb - 0.00 in0.0 mm 0.00 in0.0 mm
03:22 AM 51.8°F11.0°C 49.3°F9.6°C 91% Calm Calm -- 30.10 in1019.3 mb - 0.00 in0.0 mm 0.00 in0.0 mm
03:17 AM 51.8°F11.0°C 49.3°F9.6°C 91% Calm Calm -- 30.10 in1019.3 mb - 0.00 in0.0 mm 0.00 in0.0 mm
03:12 AM 52.0°F11.1°C 49.1°F9.5°C 90% Calm Calm -- 30.10 in1019.3 mb - 0.00 in0.0 mm 0.00 in0.0 mm
03:07 AM 52.0°F11.1°C 49.1°F9.5°C 90% Calm Calm -- 30.10 in1019.3 mb - 0.00 in0.0 mm 0.00 in0.0 mm
03:02 AM 52.2°F11.2°C 49.3°F9.6°C 90% Calm Calm -- 30.10 in1019.3 mb - 0.00 in0.0 mm 0.00 in0.0 mm
02:57 AM 52.3°F11.3°C 49.5°F9.7°C 90% Calm Calm -- 30.10 in1019.3 mb - 0.00 in0.0 mm 0.00 in0.0 mm
02:52 AM 52.5°F11.4°C 49.5°F9.7°C 89% Calm Calm -- 30.10 in1019.3 mb - 0.00 in0.0 mm 0.00 in0.0 mm
02:47 AM 52.7°F11.5°C 49.5°F9.7°C 89% Calm Calm -- 30.10 in1019.3 mb - 0.00 in0.0 mm 0.00 in0.0 mm
02:42 AM 52.9°F11.6°C 49.6°F9.8°C 89% Calm Calm -- 30.10 in1019.3 mb - 0.00 in0.0 mm 0.00 in0.0 mm
02:37 AM 53.1°F11.7°C 49.8°F9.9°C 89% Calm Calm -- 30.10 in1019.3 mb - 0.00 in0.0 mm 0.00 in0.0 mm
02:32 AM 53.2°F11.8°C 50.0°F10.0°C 89% Calm Calm -- 30.10 in1019.3 mb - 0.00 in0.0 mm 0.00 in0.0 mm
02:27 AM 53.2°F11.8°C 49.8°F9.9°C 88% Calm Calm -- 30.10 in1019.3 mb - 0.00 in0.0 mm 0.00 in0.0 mm
02:22 AM 53.6°F12.0°C 50.2°F10.1°C 88% Calm Calm -- 30.10 in1019.3 mb - 0.00 in0.0 mm 0.00 in0.0 mm
02:17 AM 53.8°F12.1°C 50.4°F10.2°C 88% Calm Calm -- 30.10 in1019.3 mb - 0.00 in0.0 mm 0.00 in0.0 mm
02:12 AM 54.0°F12.2°C 50.2°F10.1°C 87% Calm Calm -- 30.10 in1019.3 mb - 0.00 in0.0 mm 0.00 in0.0 mm
02:07 AM 54.3°F12.4°C 50.5°F10.3°C 87% Calm Calm -- 30.10 in1019.3 mb - 0.00 in0.0 mm 0.00 in0.0 mm
02:02 AM 54.5°F12.5°C 50.4°F10.2°C 86% Calm Calm -- 30.10 in1019.3 mb - 0.00 in0.0 mm 0.00 in0.0 mm
01:57 AM 54.7°F12.6°C 50.9°F10.5°C 87% Calm Calm -- 30.10 in1019.3 mb - 0.00 in0.0 mm 0.00 in0.0 mm
01:52 AM 54.9°F12.7°C 51.1°F10.6°C 87% Calm Calm -- 30.10 in1019.3 mb - 0.00 in0.0 mm 0.00 in0.0 mm
01:47 AM 55.0°F12.8°C 50.9°F10.5°C 86% Calm Calm -- 30.09 in1019.0 mb - 0.00 in0.0 mm 0.00 in0.0 mm
01:42 AM 55.2°F12.9°C 51.1°F10.6°C 86% Calm Calm -- 30.10 in1019.3 mb - 0.00 in0.0 mm 0.00 in0.0 mm
01:37 AM 55.2°F12.9°C 51.1°F10.6°C 86% Calm Calm -- 30.10 in1019.3 mb - 0.00 in0.0 mm 0.00 in0.0 mm
01:32 AM 55.4°F13.0°C 50.9°F10.5°C 85% Calm Calm -- 30.10 in1019.3 mb - 0.00 in0.0 mm 0.00 in0.0 mm
01:27 AM 55.6°F13.1°C 51.1°F10.6°C 85% Calm Calm -- 30.10 in1019.3 mb - 0.00 in0.0 mm 0.00 in0.0 mm
01:22 AM 55.8°F13.2°C 51.1°F10.6°C 84% Calm Calm -- 30.10 in1019.3 mb - 0.00 in0.0 mm 0.00 in0.0 mm
01:17 AM 55.9°F13.3°C 51.3°F10.7°C 84% Calm Calm -- 30.10 in1019.3 mb - 0.00 in0.0 mm 0.00 in0.0 mm
01:12 AM 56.1°F13.4°C 51.1°F10.6°C 83% Calm Calm -- 30.10 in1019.3 mb - 0.00 in0.0 mm 0.00 in0.0 mm
01:07 AM 56.5°F13.6°C 51.4°F10.8°C 83% Calm Calm -- 30.09 in1019.0 mb - 0.00 in0.0 mm 0.00 in0.0 mm
01:02 AM 56.8°F13.8°C 51.4°F10.8°C 82% Calm Calm -- 30.09 in1019.0 mb - 0.00 in0.0 mm 0.00 in0.0 mm
12:57 AM 57.0°F13.9°C 51.6°F10.9°C 82% Calm Calm -- 30.09 in1019.0 mb - 0.00 in0.0 mm 0.00 in0.0 mm
12:52 AM 57.4°F14.1°C 51.6°F10.9°C 81% Calm Calm -- 30.09 in1019.0 mb - 0.00 in0.0 mm 0.00 in0.0 mm
12:47 AM 57.6°F14.2°C 51.8°F11.0°C 81% Calm Calm -- 30.10 in1019.3 mb - 0.00 in0.0 mm 0.00 in0.0 mm
12:42 AM 57.7°F14.3°C 51.6°F10.9°C 80% Calm Calm -- 30.09 in1019.0 mb - 0.00 in0.0 mm 0.00 in0.0 mm
12:37 AM 57.7°F14.3°C 51.6°F10.9°C 80% Calm Calm -- 30.09 in1019.0 mb - 0.00 in0.0 mm 0.00 in0.0 mm
12:32 AM 57.9°F14.4°C 51.8°F11.0°C 80% Calm Calm -- 30.09 in1019.0 mb - 0.00 in0.0 mm 0.00 in0.0 mm
12:27 AM 58.1°F14.5°C 52.0°F11.1°C 80% Calm Calm 0.9 mph1.4 kmh 30.09 in1019.0 mb - 0.00 in0.0 mm 0.00 in0.0 mm
12:22 AM 58.3°F14.6°C 51.8°F11.0°C 79% 0.9 mph NE1.4 kmh NE -- 30.09 in1019.0 mb - 0.00 in0.0 mm 0.00 in0.0 mm
12:17 AM 58.3°F14.6°C 51.8°F11.0°C 79% 0.9 mph NE1.4 kmh NE 0.9 mph1.4 kmh 30.09 in1019.0 mb - 0.00 in0.0 mm 0.00 in0.0 mm
12:12 AM 58.5°F14.7°C 52.0°F11.1°C 79% Calm Calm -- 30.09 in1019.0 mb - 0.00 in0.0 mm 0.00 in0.0 mm
12:07 AM 58.5°F14.7°C 52.0°F11.1°C 79% Calm Calm 0.9 mph1.4 kmh 30.09 in1019.0 mb - 0.00 in0.0 mm 0.00 in0.0 mm
12:02 AM 58.5°F14.7°C 52.0°F11.1°C 79% 0.9 mph NE1.4 kmh NE 0.9 mph1.4 kmh 30.09 in1019.0 mb - 0.00 in0.0 mm 0.00 in0.0 mm